createdAt,value
2017-01-15T00:00:24.771Z,97.53
2017-01-15T00:01:05.417Z,97.34
2017-01-15T00:01:46.060Z,97.34
2017-01-15T00:02:26.621Z,98
2017-01-15T00:03:07.290Z,97.81
2017-01-15T00:03:48.007Z,98
2017-01-15T00:04:28.565Z,97.81
2017-01-15T00:05:09.121Z,97.91
2017-01-15T00:05:49.768Z,97.63
2017-01-15T00:06:30.442Z,97.72
2017-01-15T00:07:11.117Z,97.91
2017-01-15T00:07:51.768Z,97.72
2017-01-15T00:08:32.340Z,97.91
2017-01-15T00:09:12.947Z,97.72
2017-01-15T00:09:53.598Z,97.72
2017-01-15T00:10:34.278Z,97.53
2017-01-15T00:11:14.904Z,97.53
2017-01-15T00:11:55.559Z,98.19
2017-01-15T00:12:36.212Z,97.53
2017-01-15T00:13:16.893Z,97.81
2017-01-15T00:13:57.510Z,97.81
2017-01-15T00:14:38.152Z,97.91
2017-01-15T00:15:18.824Z,97.91
2017-01-15T00:15:59.461Z,97.91
2017-01-15T00:16:40.128Z,97.44
2017-01-15T00:17:20.780Z,97.91
2017-01-15T00:18:01.457Z,97.81
2017-01-15T00:18:42.113Z,97.91
2017-01-15T00:19:22.766Z,97.72
2017-01-15T00:20:03.375Z,97.72
2017-01-15T00:20:46.019Z,97.72
2017-01-15T00:21:26.629Z,97.81
2017-01-15T00:22:07.277Z,97.91
2017-01-15T00:22:48.873Z,97.63
2017-01-15T00:23:30.444Z,97.34
2017-01-15T00:24:12.014Z,97.63
2017-01-15T00:24:52.674Z,98.19
2017-01-15T00:25:33.309Z,98.57
2017-01-15T00:26:13.960Z,98.19
2017-01-15T00:26:54.653Z,98.28
2017-01-15T00:27:36.331Z,98.28
2017-01-15T00:28:16.946Z,98.19
2017-01-15T00:28:57.608Z,98
2017-01-15T00:29:38.293Z,98.1
2017-01-15T00:30:19.942Z,98
2017-01-15T00:31:00.613Z,98
2017-01-15T00:31:41.276Z,98.1
2017-01-15T00:32:22.957Z,98.19
2017-01-15T00:33:03.576Z,98.19
2017-01-15T00:33:44.231Z,98.28
2017-01-15T00:34:24.884Z,98.28
2017-01-15T00:35:05.574Z,97.91
2017-01-15T00:35:46.238Z,98
2017-01-15T00:36:26.801Z,98
2017-01-15T00:37:07.377Z,98
2017-01-15T00:37:47.994Z,98
2017-01-15T00:38:28.594Z,98.19
2017-01-15T00:39:09.170Z,98.1
2017-01-15T00:39:50.806Z,97.81
2017-01-15T00:40:31.459Z,98.19
2017-01-15T00:41:12.025Z,98.28
2017-01-15T00:41:52.704Z,98
2017-01-15T00:42:33.347Z,98.66
2017-01-15T00:43:13.994Z,97.91
2017-01-15T00:43:54.659Z,98
2017-01-15T00:44:35.292Z,98
2017-01-15T00:45:15.973Z,98.1
2017-01-15T00:45:56.568Z,97.81
2017-01-15T00:46:37.144Z,97.91
2017-01-15T00:47:17.700Z,97.81
2017-01-15T00:47:58.356Z,98
2017-01-15T00:48:38.951Z,97.91
2017-01-15T00:49:19.536Z,98
2017-01-15T00:50:00.088Z,97.91
2017-01-15T00:50:40.759Z,97.91
2017-01-15T00:51:26.134Z,98.47
2017-01-15T00:52:06.808Z,98.28
2017-01-15T00:52:48.475Z,98
2017-01-15T00:53:30.152Z,98.28
2017-01-15T00:54:10.792Z,97.91
2017-01-15T00:54:51.460Z,98.28
2017-01-15T00:55:32.101Z,98
2017-01-15T00:56:12.763Z,98
2017-01-15T00:56:53.402Z,98
2017-01-15T00:57:34.090Z,98.19
2017-01-15T00:58:14.721Z,97.91
2017-01-15T00:58:55.361Z,97.91
2017-01-15T00:59:36.017Z,98.38
2017-01-15T01:00:16.676Z,98.28
2017-01-15T01:00:57.359Z,98.19
2017-01-15T01:01:37.980Z,98
2017-01-15T01:02:19.648Z,98
2017-01-15T01:03:01.317Z,98.38
2017-01-15T01:03:43.942Z,98.1
2017-01-15T01:04:25.569Z,98.1
2017-01-15T01:05:07.223Z,98.85
2017-01-15T01:05:47.819Z,98.66
2017-01-15T01:06:28.372Z,98.57
2017-01-15T01:07:09.049Z,98.47
2017-01-15T01:07:50.661Z,98.66
2017-01-15T01:08:31.341Z,98.47
2017-01-15T01:09:11.900Z,98.47
2017-01-15T01:09:52.579Z,98.38
2017-01-15T01:10:35.199Z,98.57
2017-01-15T01:11:15.809Z,98.57
2017-01-15T01:11:56.357Z,98.76
2017-01-15T01:12:38.952Z,98.57
2017-01-15T01:13:20.576Z,98.66
2017-01-15T01:14:01.167Z,98.47
2017-01-15T01:14:41.742Z,98.85
2017-01-15T01:15:22.406Z,98.66
2017-01-15T01:16:03.040Z,98.85
2017-01-15T01:16:43.698Z,98.28
2017-01-15T01:17:24.389Z,98.38
2017-01-15T01:18:05.013Z,98.38
2017-01-15T01:18:45.646Z,98.19
2017-01-15T01:19:26.319Z,98.66
2017-01-15T01:20:07.976Z,98.76
2017-01-15T01:20:48.649Z,98.85
2017-01-15T01:21:29.302Z,98.85
2017-01-15T01:22:09.979Z,98.76
2017-01-15T01:22:50.607Z,98.85
2017-01-15T01:23:31.270Z,98.85
2017-01-15T01:24:11.917Z,98.85
2017-01-15T01:24:52.567Z,98.76
2017-01-15T01:25:33.211Z,98.95
2017-01-15T01:26:14.794Z,98.76
2017-01-15T01:26:55.423Z,98.57
2017-01-15T01:27:40.607Z,98.85
2017-01-15T01:28:22.282Z,99.04
2017-01-15T01:29:02.935Z,98.95
2017-01-15T01:29:44.512Z,98.95
2017-01-15T01:30:26.062Z,98.66
2017-01-15T01:31:06.711Z,98.95
2017-01-15T01:31:47.284Z,98.95
2017-01-15T01:32:27.941Z,99.33
2017-01-15T01:33:08.488Z,98.95
2017-01-15T01:33:49.039Z,98.95
2017-01-15T01:34:29.692Z,98.95
2017-01-15T01:35:10.326Z,98.95
2017-01-15T01:35:50.896Z,98.76
2017-01-15T01:36:31.548Z,99.04
2017-01-15T01:37:12.153Z,99.04
2017-01-15T01:37:52.843Z,98.95
2017-01-15T01:38:33.405Z,98.57
2017-01-15T01:39:14.111Z,98.95
2017-01-15T01:39:54.757Z,98.95
2017-01-15T01:40:36.372Z,98.95
2017-01-15T01:41:17.017Z,99.33
2017-01-15T01:41:57.672Z,98.95
2017-01-15T01:42:38.324Z,98.95
2017-01-15T01:43:18.978Z,98.95
2017-01-15T01:44:00.566Z,98.85
2017-01-15T01:44:41.200Z,98.85
2017-01-15T01:45:21.855Z,98.95
2017-01-15T01:46:02.433Z,98.95
2017-01-15T01:46:43.105Z,98.95
2017-01-15T01:47:23.752Z,98.95
2017-01-15T01:48:04.388Z,99.14
2017-01-15T01:48:45.060Z,98.85
2017-01-15T01:49:25.700Z,98.76
2017-01-15T01:50:06.353Z,98.76
2017-01-15T01:50:46.990Z,98.76
2017-01-15T01:51:28.555Z,98.66
2017-01-15T01:52:09.220Z,98.66
2017-01-15T01:52:49.874Z,99.04
2017-01-15T01:53:30.431Z,98.66
2017-01-15T01:54:11.077Z,98.85
2017-01-15T01:54:51.633Z,98.95
2017-01-15T01:55:33.206Z,98.95
2017-01-15T01:56:13.813Z,98.85
2017-01-15T01:56:55.456Z,98.76
2017-01-15T01:57:36.035Z,99.14
2017-01-15T01:58:16.660Z,99.14
2017-01-15T01:58:57.339Z,99.14
2017-01-15T01:59:37.919Z,98.85
2017-01-15T02:00:18.475Z,98.76
2017-01-15T02:00:59.171Z,98.76
2017-01-15T02:01:40.830Z,98.76
2017-01-15T02:02:21.470Z,98.95
2017-01-15T02:03:02.113Z,98.85
2017-01-15T02:03:42.761Z,98.95
2017-01-15T02:04:23.436Z,98.76
2017-01-15T02:05:05.037Z,98.95
2017-01-15T02:05:45.666Z,98.76
2017-01-15T02:06:27.320Z,98.85
2017-01-15T02:07:08.915Z,98.95
2017-01-15T02:07:49.566Z,98.95
2017-01-15T02:08:30.217Z,99.04
2017-01-15T02:09:11.811Z,98.95
2017-01-15T02:09:52.446Z,98.95
2017-01-15T02:10:33.103Z,98.85
2017-01-15T02:11:13.750Z,98.95
2017-01-15T02:11:54.305Z,99.33
2017-01-15T02:12:34.962Z,98.95
2017-01-15T02:13:15.609Z,98.47
2017-01-15T02:13:56.158Z,98.95
2017-01-15T02:14:36.813Z,98.85
2017-01-15T02:15:17.376Z,98.76
2017-01-15T02:15:58.026Z,98.76
2017-01-15T02:16:38.646Z,98.95
2017-01-15T02:17:20.240Z,98.85
2017-01-15T02:18:00.786Z,98.66
2017-01-15T02:18:41.471Z,98.66
2017-01-15T02:19:22.154Z,98.76
2017-01-15T02:20:02.746Z,98.95
2017-01-15T02:20:43.385Z,99.14
2017-01-15T02:21:24.118Z,99.14
2017-01-15T02:22:04.712Z,99.14
2017-01-15T02:22:45.372Z,98.95
2017-01-15T02:23:26.930Z,98.95
2017-01-15T02:24:09.539Z,98.66
2017-01-15T02:24:50.196Z,98.95
2017-01-15T02:25:30.858Z,99.04
2017-01-15T02:26:11.482Z,98.76
2017-01-15T02:26:52.044Z,98.95
2017-01-15T02:27:32.732Z,98.95
2017-01-15T02:28:13.362Z,98.76
2017-01-15T02:28:54.006Z,99.04
2017-01-15T02:29:34.678Z,98.47
2017-01-15T02:30:16.362Z,98.95
2017-01-15T02:30:56.995Z,98.76
2017-01-15T02:31:37.637Z,99.04
2017-01-15T02:32:18.315Z,98.85
2017-01-15T02:32:58.969Z,98.85
2017-01-15T02:33:39.633Z,98.47
2017-01-15T02:34:20.252Z,98.85
2017-01-15T02:35:00.906Z,98.95
2017-01-15T02:35:42.485Z,98.47
2017-01-15T02:36:23.137Z,98.95
2017-01-15T02:37:03.822Z,98.95
2017-01-15T02:37:44.446Z,98.76
2017-01-15T02:38:25.098Z,98.66
2017-01-15T02:39:05.765Z,98.66
2017-01-15T02:39:46.400Z,98.1
2017-01-15T02:40:27.067Z,98.57
2017-01-15T02:41:07.665Z,98.57
2017-01-15T02:41:48.257Z,98.47
2017-01-15T02:42:28.825Z,98.28
2017-01-15T02:43:09.400Z,98.28
2017-01-15T02:43:50.008Z,98.38
2017-01-15T02:44:30.568Z,98.71
2017-01-15T02:45:11.247Z,98.38
2017-01-15T02:45:53.870Z,98.8
2017-01-15T02:46:34.525Z,98.38
2017-01-15T02:47:15.173Z,98.71
2017-01-15T02:47:55.830Z,98.61
2017-01-15T02:48:36.482Z,98.71
2017-01-15T02:49:17.180Z,98.8
2017-01-15T02:49:57.789Z,98.8
2017-01-15T02:50:38.338Z,98.9
2017-01-15T02:51:18.921Z,98.9
2017-01-15T02:51:59.727Z,98.9
2017-01-15T02:52:40.644Z,98.71
2017-01-15T02:53:21.361Z,98.61
2017-01-15T02:54:01.991Z,98.05
2017-01-15T02:54:43.584Z,98.43
2017-01-15T02:55:24.176Z,98.05
2017-01-15T02:56:04.726Z,98.52
2017-01-15T02:56:45.298Z,98.71
2017-01-15T02:57:25.900Z,98.9
2017-01-15T02:58:06.460Z,99.08
2017-01-15T02:58:47.038Z,98.9
2017-01-15T02:59:27.703Z,98.9
2017-01-15T03:00:08.334Z,98.99
2017-01-15T03:00:48.903Z,98.9
2017-01-15T03:01:29.562Z,99.08
2017-01-15T03:02:10.162Z,98.9
2017-01-15T03:02:50.846Z,98.61
2017-01-15T03:03:31.400Z,98.71
2017-01-15T03:04:12.009Z,99.18
2017-01-15T03:04:52.602Z,98.9
2017-01-15T03:05:33.168Z,98.8
2017-01-15T03:06:13.807Z,98.71
2017-01-15T03:06:54.482Z,99.18
2017-01-15T03:07:35.176Z,98.8
2017-01-15T03:08:15.865Z,98.9
2017-01-15T03:08:56.427Z,98.8
2017-01-15T03:09:39.034Z,98.8
2017-01-15T03:10:19.642Z,98.9
2017-01-15T03:11:00.234Z,98.99
2017-01-15T03:11:40.889Z,99.18
2017-01-15T03:12:21.522Z,98.8
2017-01-15T03:13:02.093Z,99.75
2017-01-15T03:13:42.761Z,99.56
2017-01-15T03:14:23.377Z,99.56
2017-01-15T03:15:03.971Z,99.56
2017-01-15T03:15:44.603Z,99.56
2017-01-15T03:16:25.235Z,99.46
2017-01-15T03:17:05.792Z,99.46
2017-01-15T03:17:46.451Z,99.56
2017-01-15T03:18:29.045Z,99.37
2017-01-15T03:19:09.611Z,99.56
2017-01-15T03:19:50.256Z,99.27
2017-01-15T03:20:32.839Z,99.37
2017-01-15T03:21:13.483Z,99.27
2017-01-15T03:21:54.147Z,99.27
2017-01-15T03:22:34.791Z,99.27
2017-01-15T03:23:16.484Z,99.37
2017-01-15T03:23:57.142Z,99.46
2017-01-15T03:24:37.726Z,99.46
2017-01-15T03:25:19.318Z,99.46
2017-01-15T03:25:59.999Z,99.27
2017-01-15T03:26:40.598Z,99.27
2017-01-15T03:27:21.223Z,99.27
2017-01-15T03:28:01.826Z,99.37
2017-01-15T03:28:42.425Z,99.46
2017-01-15T03:29:22.982Z,99.56
2017-01-15T03:30:03.614Z,99.84
2017-01-15T03:30:44.235Z,99.65
2017-01-15T03:31:24.922Z,99.56
2017-01-15T03:32:05.526Z,99.65
2017-01-15T03:32:46.149Z,99.56
2017-01-15T03:33:26.845Z,99.75
2017-01-15T03:34:07.398Z,99.56
2017-01-15T03:34:48.051Z,99.84
2017-01-15T03:35:28.637Z,99.84
2017-01-15T03:36:09.291Z,99.84
2017-01-15T03:36:49.941Z,99.56
2017-01-15T03:37:30.593Z,99.56
2017-01-15T03:38:11.260Z,99.84
2017-01-15T03:38:51.905Z,99.75
2017-01-15T03:39:32.554Z,99.46
2017-01-15T03:40:13.209Z,99.37
2017-01-15T03:40:53.796Z,99.37
2017-01-15T03:41:34.427Z,99.56
2017-01-15T03:42:15.060Z,99.56
2017-01-15T03:42:55.741Z,99.46
2017-01-15T03:43:36.386Z,99.75
2017-01-15T03:44:17.960Z,99.65
2017-01-15T03:44:58.624Z,99.56
2017-01-15T03:45:39.297Z,99.75
2017-01-15T03:46:19.925Z,99.75
2017-01-15T03:47:00.530Z,99.37
2017-01-15T03:47:41.127Z,99.56
2017-01-15T03:48:21.765Z,99.46
2017-01-15T03:49:02.420Z,99.46
2017-01-15T03:49:43.028Z,99.46
2017-01-15T03:50:23.619Z,99.37
2017-01-15T03:51:04.201Z,99.46
2017-01-15T03:51:44.833Z,99.75
2017-01-15T03:52:25.466Z,99.56
2017-01-15T03:53:06.160Z,99.37
2017-01-15T03:53:46.774Z,99.84
2017-01-15T03:54:27.442Z,99.84
2017-01-15T03:55:08.006Z,99.65
2017-01-15T03:55:48.650Z,99.46
2017-01-15T03:56:29.242Z,99.56
2017-01-15T03:57:09.838Z,99.84
2017-01-15T03:57:50.383Z,99.84
2017-01-15T03:58:30.962Z,99.37
2017-01-15T03:59:11.549Z,99.46
2017-01-15T03:59:52.160Z,99.46
2017-01-15T04:00:32.691Z,99.65
2017-01-15T04:01:13.386Z,99.46
2017-01-15T04:01:54.034Z,99.99
2017-01-15T04:02:34.665Z,99.99
2017-01-15T04:03:15.284Z,99.99
2017-01-15T04:03:55.921Z,99.94
2017-01-15T04:04:36.574Z,99.99
2017-01-15T04:05:17.226Z,99.99
2017-01-15T04:05:57.877Z,99.99
2017-01-15T04:06:38.504Z,99.18
2017-01-15T04:07:19.154Z,99.65
2017-01-15T04:07:59.817Z,98.99
2017-01-15T04:08:40.471Z,99.46
2017-01-15T04:09:21.094Z,99.37
2017-01-15T04:10:03.707Z,99.65
2017-01-15T04:10:44.375Z,99.46
2017-01-15T04:11:25.083Z,99.65
2017-01-15T04:12:05.649Z,99.46
2017-01-15T04:12:46.342Z,99.46
2017-01-15T04:13:26.941Z,99.56
2017-01-15T04:14:07.490Z,99.65
2017-01-15T04:14:48.164Z,99.37
2017-01-15T04:15:28.787Z,99.46
2017-01-15T04:16:09.378Z,99.65
2017-01-15T04:16:50.046Z,99.65
2017-01-15T04:17:30.621Z,99.08
2017-01-15T04:18:11.199Z,99.99
2017-01-15T04:18:51.782Z,99.99
2017-01-15T04:19:32.448Z,99.99
2017-01-15T04:20:14.050Z,99.94
2017-01-15T04:20:54.742Z,99.99
2017-01-15T04:21:35.390Z,99.99
2017-01-15T04:22:16.051Z,99.99
2017-01-15T04:22:56.693Z,99.99
2017-01-15T04:23:37.350Z,99.99
2017-01-15T04:24:18.924Z,99.99
2017-01-15T04:24:59.576Z,99.99
2017-01-15T04:25:40.238Z,99.99
2017-01-15T04:26:20.887Z,99.99
2017-01-15T04:27:01.543Z,99.99
2017-01-15T04:27:42.187Z,99.99
2017-01-15T04:28:23.916Z,99.65
2017-01-15T04:29:04.520Z,99.27
2017-01-15T04:29:45.187Z,99.46
2017-01-15T04:30:25.821Z,99.46
2017-01-15T04:31:06.387Z,99.46
2017-01-15T04:31:47.053Z,99.56
2017-01-15T04:32:27.649Z,99.56
2017-01-15T04:33:09.254Z,99.65
2017-01-15T04:33:49.832Z,99.46
2017-01-15T04:34:30.473Z,99.65
2017-01-15T04:35:11.068Z,99.65
2017-01-15T04:35:52.694Z,99.37
2017-01-15T04:36:33.338Z,99.46
2017-01-15T04:37:13.995Z,99.46
2017-01-15T04:37:54.647Z,99.46
2017-01-15T04:38:35.305Z,99.56
2017-01-15T04:39:15.955Z,99.56
2017-01-15T04:39:56.605Z,99.46
2017-01-15T04:40:37.257Z,99.18
2017-01-15T04:41:17.946Z,99.99
2017-01-15T04:41:58.561Z,99.99
2017-01-15T04:42:39.213Z,99.99
2017-01-15T04:43:19.868Z,99.99
2017-01-15T04:44:00.519Z,99.84
2017-01-15T04:44:41.172Z,99.99
2017-01-15T04:45:21.826Z,99.94
2017-01-15T04:46:02.485Z,99.99
2017-01-15T04:46:43.139Z,99.99
2017-01-15T04:47:23.793Z,99.99
2017-01-15T04:48:04.370Z,99.99
2017-01-15T04:48:44.955Z,99.94
2017-01-15T04:49:25.560Z,99.94
2017-01-15T04:50:06.213Z,99.99
2017-01-15T04:50:46.874Z,99.94
2017-01-15T04:51:27.522Z,99.99
2017-01-15T04:52:08.167Z,99.84
2017-01-15T04:52:48.844Z,99.99
2017-01-15T04:53:29.500Z,99.99
2017-01-15T04:54:10.131Z,99.99
2017-01-15T04:54:50.785Z,99.94
2017-01-15T04:55:31.438Z,99.94
2017-01-15T04:56:12.090Z,99.84
2017-01-15T04:56:52.742Z,99.99
2017-01-15T04:57:33.402Z,99.84
2017-01-15T04:58:14.047Z,99.94
2017-01-15T04:58:54.707Z,99.99
2017-01-15T04:59:35.375Z,99.94
2017-01-15T05:00:16.028Z,99.84
2017-01-15T05:00:56.662Z,99.99
2017-01-15T05:01:37.258Z,99.94
2017-01-15T05:02:17.840Z,99.99
2017-01-15T05:02:58.461Z,99.99
2017-01-15T05:03:40.069Z,99.99
2017-01-15T05:04:20.639Z,99.99
2017-01-15T05:05:01.298Z,99.99
2017-01-15T05:05:41.893Z,99.99
2017-01-15T05:06:23.500Z,99.99
2017-01-15T05:07:04.102Z,99.99
2017-01-15T05:07:44.732Z,99.99
2017-01-15T05:08:25.321Z,99.99
2017-01-15T05:09:05.906Z,99.99
2017-01-15T05:09:46.478Z,99.94
2017-01-15T05:10:27.132Z,99.75
2017-01-15T05:11:07.737Z,99.99
2017-01-15T05:11:48.644Z,99.84
2017-01-15T05:12:29.313Z,99.84
2017-01-15T05:13:09.965Z,99.84
2017-01-15T05:13:50.609Z,99.84
2017-01-15T05:14:31.265Z,99.84
2017-01-15T05:15:11.924Z,99.84
2017-01-15T05:15:52.577Z,99.84
2017-01-15T05:16:33.159Z,99.84
2017-01-15T05:17:13.822Z,99.94
2017-01-15T05:17:54.397Z,99.84
2017-01-15T05:18:35.075Z,99.94
2017-01-15T05:19:15.718Z,99.99
2017-01-15T05:19:56.289Z,99.99
2017-01-15T05:20:36.931Z,99.84
2017-01-15T05:21:17.559Z,99.99
2017-01-15T05:21:58.147Z,99.94
2017-01-15T05:22:38.782Z,99.99
2017-01-15T05:23:19.440Z,99.99
2017-01-15T05:24:00.090Z,99.99
2017-01-15T05:24:40.752Z,99.99
2017-01-15T05:25:21.411Z,99.99
2017-01-15T05:26:02.052Z,99.99
2017-01-15T05:26:42.711Z,99.99
2017-01-15T05:27:23.344Z,99.99
2017-01-15T05:28:04.017Z,99.84
2017-01-15T05:28:44.670Z,99.99
2017-01-15T05:29:25.329Z,99.94
2017-01-15T05:30:05.995Z,99.99
2017-01-15T05:30:46.580Z,99.99
2017-01-15T05:31:27.220Z,99.99
2017-01-15T05:32:07.783Z,99.94
2017-01-15T05:32:48.378Z,99.94
2017-01-15T05:33:29.012Z,99.94
2017-01-15T05:34:09.589Z,99.99
2017-01-15T05:34:50.256Z,99.99
2017-01-15T05:35:30.871Z,99.99
2017-01-15T05:36:11.424Z,99.99
2017-01-15T05:36:53.018Z,99.99
2017-01-15T05:37:33.673Z,99.99
2017-01-15T05:38:14.339Z,99.99
2017-01-15T05:38:54.980Z,99.94
2017-01-15T05:39:35.612Z,99.99
2017-01-15T05:40:16.278Z,99.94
2017-01-15T05:40:56.943Z,99.99
2017-01-15T05:41:37.600Z,99.99
2017-01-15T05:42:18.247Z,99.99
2017-01-15T05:42:58.897Z,99.99
2017-01-15T05:43:39.551Z,99.99
2017-01-15T05:44:20.190Z,99.99
2017-01-15T05:45:00.787Z,99.84
2017-01-15T05:45:41.440Z,99.99
2017-01-15T05:46:22.031Z,99.99
2017-01-15T05:47:02.597Z,99.99
2017-01-15T05:47:43.246Z,99.99
2017-01-15T05:48:23.847Z,99.99
2017-01-15T05:49:04.540Z,99.99
2017-01-15T05:49:45.113Z,99.99
2017-01-15T05:50:25.763Z,99.99
2017-01-15T05:51:06.358Z,99.99
2017-01-15T05:51:46.968Z,99.99
2017-01-15T05:52:27.609Z,99.99
2017-01-15T05:53:08.274Z,99.84
2017-01-15T05:53:48.919Z,99.94
2017-01-15T05:54:29.584Z,99.99
2017-01-15T05:55:10.232Z,99.99
2017-01-15T05:55:50.930Z,99.99
2017-01-15T05:56:31.582Z,99.84
2017-01-15T05:57:12.172Z,99.75
2017-01-15T05:57:52.740Z,99.99
2017-01-15T05:58:34.434Z,99.84
2017-01-15T05:59:15.052Z,99.99
2017-01-15T05:59:55.639Z,99.94
2017-01-15T06:00:36.285Z,99.99
2017-01-15T06:01:16.864Z,99.99
2017-01-15T06:01:57.469Z,99.99
2017-01-15T06:02:38.122Z,99.18
2017-01-15T06:03:18.773Z,99.65
2017-01-15T06:03:59.438Z,99.65
2017-01-15T06:04:40.080Z,99.27
2017-01-15T06:05:20.735Z,99.56
2017-01-15T06:06:01.417Z,99.37
2017-01-15T06:06:42.602Z,99.37
2017-01-15T06:07:23.186Z,99.75
2017-01-15T06:08:03.781Z,99.75
2017-01-15T06:08:44.413Z,99.75
2017-01-15T06:09:25.027Z,99.84
2017-01-15T06:10:05.709Z,99.75
2017-01-15T06:10:46.293Z,99.75
2017-01-15T06:11:26.928Z,99.75
2017-01-15T06:12:07.580Z,99.75
2017-01-15T06:12:48.222Z,99.75
2017-01-15T06:13:29.805Z,99.37
2017-01-15T06:14:10.461Z,99.65
2017-01-15T06:14:51.112Z,99.65
2017-01-15T06:15:31.781Z,99.18
2017-01-15T06:16:12.412Z,99.65
2017-01-15T06:16:53.068Z,99.46
2017-01-15T06:17:33.728Z,99.56
2017-01-15T06:18:14.379Z,99.41
2017-01-15T06:18:55.005Z,98.99
2017-01-15T06:19:35.678Z,99.99
2017-01-15T06:20:16.352Z,99.99
2017-01-15T06:20:57.004Z,99.99
2017-01-15T06:21:37.579Z,99.99
2017-01-15T06:22:18.148Z,99.99
2017-01-15T06:22:58.715Z,99.99
2017-01-15T06:23:39.404Z,99.99
2017-01-15T06:24:19.941Z,99.65
2017-01-15T06:25:00.524Z,99.99
2017-01-15T06:25:41.165Z,99.99
2017-01-15T06:26:21.780Z,99.84
2017-01-15T06:27:02.360Z,99.98
2017-01-15T06:27:43.019Z,99.98
2017-01-15T06:28:23.696Z,99.99
2017-01-15T06:29:04.302Z,99.99
2017-01-15T06:29:44.878Z,99.99
2017-01-15T06:30:25.517Z,99.99
2017-01-15T06:31:07.118Z,99.7
2017-01-15T06:31:47.685Z,99.75
2017-01-15T06:32:28.277Z,99.99
2017-01-15T06:33:08.884Z,99.99
2017-01-15T06:33:49.644Z,99.88
2017-01-15T06:34:30.188Z,99.99
2017-01-15T06:35:10.785Z,99.99
2017-01-15T06:35:53.442Z,99.99
2017-01-15T06:36:34.035Z,99.94
2017-01-15T06:37:14.688Z,99.99
2017-01-15T06:37:55.341Z,99.99
2017-01-15T06:38:36.085Z,99.99
2017-01-15T06:39:16.750Z,99.99
2017-01-15T06:39:57.363Z,99.99
2017-01-15T06:40:38.042Z,99.99
2017-01-15T06:41:18.625Z,99.99
2017-01-15T06:41:59.270Z,99.99
2017-01-15T06:42:40.940Z,99.99
2017-01-15T06:43:21.601Z,99.99
2017-01-15T06:44:02.255Z,99.99
2017-01-15T06:44:42.899Z,99.99
2017-01-15T06:45:23.565Z,99.99
2017-01-15T06:46:04.210Z,99.99
2017-01-15T06:46:44.876Z,99.99
2017-01-15T06:47:25.538Z,99.99
2017-01-15T06:48:06.169Z,99.99
2017-01-15T06:48:46.845Z,99.99
2017-01-15T06:49:27.483Z,99.99
2017-01-15T06:50:08.142Z,99.99
2017-01-15T06:50:49.832Z,99.99
2017-01-15T06:51:30.469Z,99.99
2017-01-15T06:52:11.105Z,99.99
2017-01-15T06:52:51.755Z,99.99
2017-01-15T06:53:32.424Z,99.99
2017-01-15T06:54:13.070Z,99.99
2017-01-15T06:54:53.661Z,99.99
2017-01-15T06:55:34.321Z,99.99
2017-01-15T06:56:14.912Z,99.99
2017-01-15T06:56:55.579Z,99.99
2017-01-15T06:57:36.221Z,99.99
2017-01-15T06:58:16.809Z,99.99
2017-01-15T06:58:57.431Z,99.99
2017-01-15T06:59:38.085Z,99.99
2017-01-15T07:00:18.707Z,99.99
2017-01-15T07:00:59.269Z,99.99
2017-01-15T07:01:39.901Z,99.99
2017-01-15T07:02:20.536Z,99.99
2017-01-15T07:03:01.197Z,99.99
2017-01-15T07:03:41.847Z,99.99
2017-01-15T07:04:22.491Z,99.99
2017-01-15T07:05:04.178Z,99.99
2017-01-15T07:05:44.837Z,99.99
2017-01-15T07:06:25.543Z,99.99
2017-01-15T07:07:06.104Z,99.99
2017-01-15T07:07:46.755Z,99.99
2017-01-15T07:08:27.328Z,99.99
2017-01-15T07:09:07.930Z,99.99
2017-01-15T07:09:48.494Z,99.99
2017-01-15T07:10:29.150Z,99.99
2017-01-15T07:11:09.745Z,99.99
2017-01-15T07:11:50.372Z,99.99
2017-01-15T07:12:31.002Z,99.99
2017-01-15T07:13:11.671Z,99.99
2017-01-15T07:13:52.316Z,99.99
2017-01-15T07:14:32.978Z,99.99
2017-01-15T07:15:13.631Z,99.99
2017-01-15T07:15:54.318Z,99.99
2017-01-15T07:16:34.960Z,99.99
2017-01-15T07:17:15.575Z,99.99
2017-01-15T07:17:57.163Z,99.99
2017-01-15T07:18:37.812Z,99.99
2017-01-15T07:19:18.481Z,99.99
2017-01-15T07:19:59.148Z,99.99
2017-01-15T07:20:39.764Z,99.99
2017-01-15T07:21:20.412Z,99.99
2017-01-15T07:22:01.000Z,99.99
2017-01-15T07:22:41.666Z,99.99
2017-01-15T07:23:22.258Z,99.99
2017-01-15T07:24:02.829Z,99.99
2017-01-15T07:24:43.483Z,99.99
2017-01-15T07:25:24.075Z,99.99
2017-01-15T07:26:05.684Z,99.99
2017-01-15T07:26:46.346Z,99.99
2017-01-15T07:27:26.989Z,99.99
2017-01-15T07:28:07.656Z,99.99
2017-01-15T07:28:48.301Z,99.99
2017-01-15T07:29:28.949Z,99.99
2017-01-15T07:30:09.601Z,99.99
2017-01-15T07:30:50.259Z,99.99
2017-01-15T07:31:30.914Z,99.99
2017-01-15T07:32:11.560Z,99.99
2017-01-15T07:32:52.219Z,99.99
2017-01-15T07:33:33.897Z,99.99
2017-01-15T07:34:14.459Z,99.99
2017-01-15T07:34:55.115Z,99.99
2017-01-15T07:35:35.782Z,99.99
2017-01-15T07:36:16.420Z,99.99
2017-01-15T07:36:57.045Z,99.99
2017-01-15T07:37:37.703Z,99.99
2017-01-15T07:38:18.269Z,99.99
2017-01-15T07:38:58.922Z,99.99
2017-01-15T07:39:39.525Z,99.99
2017-01-15T07:40:20.124Z,99.99
2017-01-15T07:41:00.675Z,99.99
2017-01-15T07:41:41.339Z,99.99
2017-01-15T07:42:21.980Z,99.99
2017-01-15T07:43:02.555Z,99.99
2017-01-15T07:43:43.207Z,99.99
2017-01-15T07:44:23.835Z,99.99
2017-01-15T07:45:04.409Z,99.99
2017-01-15T07:45:45.038Z,99.99
2017-01-15T07:46:25.588Z,99.99
2017-01-15T07:47:06.166Z,99.99
2017-01-15T07:47:46.817Z,99.99
2017-01-15T07:48:27.386Z,99.99
2017-01-15T07:49:07.998Z,99.99
2017-01-15T07:49:48.549Z,99.99
2017-01-15T07:50:29.200Z,99.99
2017-01-15T07:51:09.806Z,99.99
2017-01-15T07:51:50.453Z,99.99
2017-01-15T07:52:31.106Z,99.99
2017-01-15T07:53:11.763Z,99.99
2017-01-15T07:53:52.443Z,99.99
2017-01-15T07:54:33.078Z,99.99
2017-01-15T07:55:13.725Z,99.99
2017-01-15T07:55:54.389Z,99.99
2017-01-15T07:56:35.040Z,99.99
2017-01-15T07:57:15.646Z,99.99
2017-01-15T07:57:57.310Z,99.99
2017-01-15T07:58:37.983Z,99.99
2017-01-15T07:59:18.624Z,99.99
2017-01-15T07:59:59.266Z,99.99
2017-01-15T08:00:39.932Z,99.99
2017-01-15T08:01:20.567Z,99.99
2017-01-15T08:02:01.184Z,99.99
2017-01-15T08:02:41.871Z,99.99
2017-01-15T08:03:22.430Z,99.99
2017-01-15T08:04:03.112Z,99.99
2017-01-15T08:04:43.779Z,99.99
2017-01-15T08:05:24.381Z,99.94
2017-01-15T08:06:05.864Z,99.84
2017-01-15T08:06:46.528Z,99.99
2017-01-15T08:07:27.103Z,99.99
2017-01-15T08:08:07.815Z,99.99
2017-01-15T08:08:48.420Z,99.99
2017-01-15T08:09:31.106Z,99.99
2017-01-15T08:10:11.766Z,99.99
2017-01-15T08:10:53.416Z,99.99
2017-01-15T08:11:33.963Z,99.99
2017-01-15T08:12:14.598Z,99.99
2017-01-15T08:12:55.206Z,99.99
2017-01-15T08:13:35.799Z,99.99
2017-01-15T08:14:16.393Z,99.99
2017-01-15T08:14:57.046Z,99.99
2017-01-15T08:15:37.706Z,99.99
2017-01-15T08:16:18.352Z,99.99
2017-01-15T08:16:58.902Z,99.99
2017-01-15T08:17:39.479Z,99.99
2017-01-15T08:18:20.118Z,99.99
2017-01-15T08:19:00.817Z,99.99
2017-01-15T08:19:41.385Z,99.99
2017-01-15T08:20:22.059Z,99.99
2017-01-15T08:21:02.724Z,99.84
2017-01-15T08:21:44.350Z,99.99
2017-01-15T08:22:24.920Z,99.99
2017-01-15T08:23:05.590Z,99.99
2017-01-15T08:23:46.171Z,99.99
2017-01-15T08:24:26.861Z,99.99
2017-01-15T08:25:07.431Z,99.99
2017-01-15T08:25:48.086Z,99.99
2017-01-15T08:26:28.650Z,99.99
2017-01-15T08:27:09.272Z,99.99
2017-01-15T08:27:49.847Z,99.99
2017-01-15T08:28:30.485Z,99.99
2017-01-15T08:29:11.116Z,99.99
2017-01-15T08:29:51.787Z,99.99
2017-01-15T08:30:32.358Z,99.99
2017-01-15T08:31:13.035Z,99.99
2017-01-15T08:31:53.691Z,99.99
2017-01-15T08:32:34.351Z,99.99
2017-01-15T08:33:14.994Z,99.99
2017-01-15T08:33:55.646Z,99.99
2017-01-15T08:34:36.303Z,99.99
2017-01-15T08:35:16.953Z,99.99
2017-01-15T08:35:57.607Z,99.99
2017-01-15T08:36:38.261Z,99.99
2017-01-15T08:37:18.876Z,99.99
2017-01-15T08:37:59.511Z,99.99
2017-01-15T08:38:41.950Z,99.99
2017-01-15T08:39:22.567Z,99.99
2017-01-15T08:40:03.244Z,99.99
2017-01-15T08:40:43.878Z,99.99
2017-01-15T08:41:24.524Z,99.99
2017-01-15T08:42:05.170Z,99.99
2017-01-15T08:42:45.838Z,99.99
2017-01-15T08:43:26.479Z,99.99
2017-01-15T08:44:07.169Z,99.99
2017-01-15T08:44:47.811Z,99.99
2017-01-15T08:45:28.372Z,99.99
2017-01-15T08:46:09.015Z,99.99
2017-01-15T08:46:49.653Z,99.99